CheckWX is a tool to help pilots better visualize weather data.  It is not intended as a substitute for an official pre-flight weather briefing.

03:26:05 UTC

ENSF METAR
Statfjord A Oilp
Statfjord A Oilp, Norway
Current

36 mins ago

ENSF 210250Z AUTO 19021KT 0150NDV FG NCD 11/09 Q1020 W///S4
Observed
Sep-21 @ 02:50 UTC
Wind
  • 190° at 21 KTS
Visibility
Conditions
Fog
Cloud Levels
  • Clear skies
Temperature
11°C / 52°F
Dewpoint
C / 48°F
Humidity
88%
Altimeter
30.12" Hg
Pressure
1019.92 hPa
Previous

1 hour ago

ENSF 210220Z AUTO 18019KT 0250NDV FG NCD 11/09 Q1020 W///S4
Observed
Sep-21 @ 02:20 UTC
Wind
  • 180° at 19 KTS
Visibility
Conditions
Fog
Cloud Levels
  • Clear skies
Temperature
11°C / 52°F
Dewpoint
C / 48°F
Humidity
88%
Altimeter
30.12" Hg
Pressure
1019.92 hPa
Previous

2 hours ago

ENSF 210150Z AUTO 18019KT 0150NDV FG NCD 11/09 Q1020 W///S4
Observed
Sep-21 @ 01:50 UTC
Wind
  • 180° at 19 KTS
Visibility
Conditions
Fog
Cloud Levels
  • Clear skies
Temperature
11°C / 52°F
Dewpoint
C / 48°F
Humidity
88%
Altimeter
30.12" Hg
Pressure
1019.92 hPa